Time;durP1;ratioP1;P1;durP2;ratioP2;P2;SDS_P1;SDS_P2;PMS_P1;PMS_P2;Temp;Humidity;BMP_temperature;BMP_pressure;BME280_temperature;BME280_humidity;BME280_pressure;Samples;Min_cycle;Max_cycle;Signal;HPM_P1;HPM_P2
2022/10/20 00:01:17;;;;;;;18.27;12.07;;;;;;;;;;5072047;28;20072;-76
2022/10/20 00:03:44;;;;;;;16.95;11.55;;;;;;;;;;5070747;28;20444;-76
2022/10/20 00:06:11;;;;;;;17.10;12.05;;;;;;;;;;5060489;28;20455;-77
2022/10/20 00:08:38;;;;;;;15.00;11.68;;;;;;;;;;5065722;28;20047;-77
2022/10/20 00:11:04;;;;;;;15.95;11.80;;;;;;;;;;5072379;28;20492;-77
2022/10/20 00:13:30;;;;;;;17.52;11.65;;;;;;;;;;5070682;28;20039;-76
2022/10/20 00:15:57;;;;;;;18.83;11.68;;;;;;;;;;5071963;28;20052;-76
2022/10/20 00:18:24;;;;;;;20.92;11.95;;;;;;;;;;5070034;28;20466;-76
2022/10/20 00:20:51;;;;;;;17.48;11.70;;;;;;;;;;5067631;28;20024;-76
2022/10/20 00:23:17;;;;;;;14.45;11.80;;;;;;;;;;5070816;28;20033;-76
2022/10/20 00:25:43;;;;;;;17.48;11.68;;;;;;;;;;5073261;28;20536;-76
2022/10/20 00:28:09;;;;;;;15.65;11.23;;;;;;;;;;5072631;28;20028;-76
2022/10/20 00:30:35;;;;;;;18.33;11.57;;;;;;;;;;5069623;28;20025;-76
2022/10/20 00:33:02;;;;;;;18.92;11.68;;;;;;;;;;5072439;28;20492;-76
2022/10/20 00:35:29;;;;;;;14.65;11.70;;;;;;;;;;5072616;28;20032;-76
2022/10/20 00:37:55;;;;;;;16.42;11.88;;;;;;;;;;5073476;28;20504;-76
2022/10/20 00:40:21;;;;;;;14.68;11.35;;;;;;;;;;5068635;28;20481;-76
2022/10/20 00:42:47;;;;;;;16.23;10.90;;;;;;;;;;5071954;28;20032;-76
2022/10/20 00:45:18;;;;;;;23.27;11.70;;;;;;;;;;5068460;28;20020;-75
2022/10/20 00:47:55;;;;;;;17.08;11.02;;;;;;;;;;5072334;28;20486;-75
2022/10/20 00:50:22;;;;;;;19.58;11.40;;;;;;;;;;5048484;28;20033;-75
2022/10/20 00:52:49;;;;;;;18.63;11.27;;;;;;;;;;5061012;28;20382;-75
2022/10/20 00:55:18;;;;;;;22.90;11.68;;;;;;;;;;5071737;28;20070;-75
2022/10/20 00:57:47;;;;;;;18.40;11.40;;;;;;;;;;5063482;28;20020;-76
2022/10/20 01:00:13;;;;;;;15.55;11.43;;;;;;;;;;5071006;28;20028;-75
2022/10/20 01:02:39;;;;;;;19.15;11.50;;;;;;;;;;5062020;28;20036;-76
2022/10/20 01:05:06;;;;;;;19.20;11.07;;;;;;;;;;5072649;28;20381;-76
2022/10/20 01:07:32;;;;;;;16.35;11.35;;;;;;;;;;5075673;28;20053;-75
2022/10/20 01:09:58;;;;;;;15.98;11.07;;;;;;;;;;5076014;28;20091;-76
2022/10/20 01:12:33;;;;;;;17.50;10.70;;;;;;;;;;5073244;28;20560;-76
2022/10/20 01:15:11;;;;;;;13.20;10.52;;;;;;;;;;5075433;28;20501;-76
2022/10/20 01:17:45;;;;;;;14.45;10.48;;;;;;;;;;5075001;28;20029;-76
2022/10/20 01:20:11;;;;;;;13.65;10.52;;;;;;;;;;5075998;28;20021;-75
2022/10/20 01:23:03;;;;;;;12.20;10.15;;;;;;;;;;5073795;28;20083;-76
2022/10/20 01:25:48;;;;;;;17.38;10.32;;;;;;;;;;5064953;28;20040;-76
2022/10/20 01:28:26;;;;;;;15.13;9.77;;;;;;;;;;5075411;28;20024;-76
2022/10/20 01:30:58;;;;;;;18.10;10.98;;;;;;;;;;5074939;28;20037;-76
2022/10/20 01:33:39;;;;;;;15.30;10.93;;;;;;;;;;5072655;28;20016;-76
2022/10/20 01:36:27;;;;;;;16.33;10.60;;;;;;;;;;5075075;28;20161;-75
2022/10/20 01:39:01;;;;;;;13.45;10.60;;;;;;;;;;5067289;28;20031;-75
2022/10/20 01:41:32;;;;;;;16.08;10.60;;;;;;;;;;5073754;28;20050;-76
2022/10/20 01:43:59;;;;;;;13.07;9.60;;;;;;;;;;5058657;28;20032;-76
2022/10/20 01:46:26;;;;;;;15.57;10.98;;;;;;;;;;5070975;28;20103;-75
2022/10/20 01:48:53;;;;;;;14.63;9.80;;;;;;;;;;5074728;28;20474;-76
2022/10/20 01:51:19;;;;;;;14.20;10.98;;;;;;;;;;5075165;28;20016;-77
2022/10/20 01:53:45;;;;;;;16.15;10.38;;;;;;;;;;5072705;28;20066;-76
2022/10/20 01:56:15;;;;;;;13.80;9.77;;;;;;;;;;5067738;28;20028;-76
2022/10/20 01:58:45;;;;;;;15.30;10.07;;;;;;;;;;5074617;28;20028;-75
2022/10/20 02:01:25;;;;;;;14.65;9.90;;;;;;;;;;5055587;28;20074;-74
2022/10/20 02:03:53;;;;;;;13.15;9.93;;;;;;;;;;5069975;28;20400;-76
2022/10/20 02:06:25;;;;;;;14.98;10.30;;;;;;;;;;5073199;28;20504;-75
2022/10/20 02:09:03;;;;;;;15.88;10.95;;;;;;;;;;5074410;28;20111;-75
2022/10/20 02:11:29;;;;;;;16.48;10.75;;;;;;;;;;5074475;28;20033;-75
2022/10/20 02:13:56;;;;;;;13.98;9.70;;;;;;;;;;5071693;28;20474;-76
2022/10/20 02:16:30;;;;;;;15.82;10.32;;;;;;;;;;5072592;28;20099;-77
2022/10/20 02:18:57;;;;;;;17.98;10.60;;;;;;;;;;5073680;28;20119;-74
2022/10/20 02:21:23;;;;;;;15.23;9.40;;;;;;;;;;5074267;28;20028;-75
2022/10/20 02:23:50;;;;;;;15.55;10.00;;;;;;;;;;5056133;28;20367;-75
2022/10/20 02:26:18;;;;;;;15.57;9.85;;;;;;;;;;5073626;28;20013;-76
2022/10/20 02:28:47;;;;;;;13.70;9.32;;;;;;;;;;5074081;28;20025;-76
2022/10/20 02:31:13;;;;;;;14.95;9.95;;;;;;;;;;5073382;28;20051;-77
2022/10/20 02:33:40;;;;;;;17.52;10.30;;;;;;;;;;5071196;28;20029;-75
2022/10/20 02:36:11;;;;;;;13.52;9.70;;;;;;;;;;5073878;28;20036;-75
2022/10/20 02:38:37;;;;;;;13.68;9.45;;;;;;;;;;5072520;28;20028;-76
2022/10/20 02:41:03;;;;;;;13.80;9.75;;;;;;;;;;5073658;28;20059;-76
2022/10/20 02:43:29;;;;;;;12.13;9.30;;;;;;;;;;5073714;28;20029;-76
2022/10/20 02:45:55;;;;;;;14.23;9.70;;;;;;;;;;5074136;28;20024;-76
2022/10/20 02:48:21;;;;;;;17.17;10.07;;;;;;;;;;5069170;28;20032;-76
2022/10/20 02:50:50;;;;;;;11.25;8.85;;;;;;;;;;5074117;28;20016;-76
2022/10/20 02:53:17;;;;;;;14.68;9.73;;;;;;;;;;5073207;28;20035;-75
2022/10/20 02:55:43;;;;;;;15.15;9.98;;;;;;;;;;5072505;28;20095;-77
2022/10/20 02:58:09;;;;;;;15.07;9.25;;;;;;;;;;5063538;28;20125;-77
2022/10/20 03:00:35;;;;;;;16.75;9.95;;;;;;;;;;5071978;28;20482;-77
2022/10/20 03:03:01;;;;;;;16.42;9.82;;;;;;;;;;5073602;28;20040;-76
2022/10/20 03:05:28;;;;;;;16.70;10.00;;;;;;;;;;5072426;28;20086;-76
2022/10/20 03:07:54;;;;;;;15.38;9.88;;;;;;;;;;5073275;28;20034;-76
2022/10/20 03:10:20;;;;;;;17.90;10.05;;;;;;;;;;5071569;28;20047;-75
2022/10/20 03:12:46;;;;;;;14.80;11.13;;;;;;;;;;5055574;28;20063;-76
2022/10/20 03:15:12;;;;;;;14.27;10.32;;;;;;;;;;5073334;28;20021;-76
2022/10/20 03:17:38;;;;;;;16.83;10.10;;;;;;;;;;5054829;28;20444;-76
2022/10/20 03:20:05;;;;;;;17.05;10.23;;;;;;;;;;5072083;28;20036;-75
2022/10/20 03:22:31;;;;;;;16.83;10.55;;;;;;;;;;5073513;28;20024;-77
2022/10/20 03:24:57;;;;;;;15.85;10.10;;;;;;;;;;5072731;28;20029;-76
2022/10/20 03:27:23;;;;;;;17.00;10.82;;;;;;;;;;5071193;28;20081;-75
2022/10/20 03:29:49;;;;;;;17.42;10.73;;;;;;;;;;5072296;28;20035;-76
2022/10/20 03:32:15;;;;;;;16.85;10.75;;;;;;;;;;5069905;28;20032;-75
2022/10/20 03:34:41;;;;;;;18.85;11.00;;;;;;;;;;5072712;28;20021;-76
2022/10/20 03:37:07;;;;;;;14.52;10.82;;;;;;;;;;5072768;28;20032;-76
2022/10/20 03:39:33;;;;;;;16.48;10.75;;;;;;;;;;5072156;28;20130;-76
2022/10/20 03:41:59;;;;;;;18.65;11.10;;;;;;;;;;5070182;28;20047;-74
2022/10/20 03:44:25;;;;;;;16.80;10.90;;;;;;;;;;5073652;28;20174;-77
2022/10/20 03:46:51;;;;;;;15.35;11.15;;;;;;;;;;5071445;28;20020;-76
2022/10/20 03:49:18;;;;;;;15.25;10.23;;;;;;;;;;5071117;28;20031;-76
2022/10/20 03:51:44;;;;;;;14.00;10.13;;;;;;;;;;5083810;28;20024;-76
2022/10/20 03:54:10;;;;;;;15.90;9.85;;;;;;;;;;5058888;28;20033;-75
2022/10/20 03:56:36;;;;;;;18.13;10.70;;;;;;;;;;5070075;28;20016;-76
2022/10/20 03:59:02;;;;;;;19.10;11.02;;;;;;;;;;5070197;28;20083;-75
2022/10/20 04:01:31;;;;;;;19.88;10.52;;;;;;;;;;5072130;28;20107;-75
2022/10/20 04:03:57;;;;;;;15.68;10.23;;;;;;;;;;5052064;28;20080;-75
2022/10/20 04:06:24;;;;;;;13.18;9.65;;;;;;;;;;5072373;28;20039;-75
2022/10/20 04:08:50;;;;;;;14.45;9.10;;;;;;;;;;5072187;28;20029;-76
2022/10/20 04:11:16;;;;;;;14.07;9.98;;;;;;;;;;5071812;28;20070;-75
2022/10/20 04:13:42;;;;;;;13.50;9.65;;;;;;;;;;5070422;28;20095;-76
2022/10/20 04:16:08;;;;;;;12.75;9.88;;;;;;;;;;5070951;28;20028;-76
2022/10/20 04:18:34;;;;;;;12.77;9.20;;;;;;;;;;5072472;28;20024;-75
2022/10/20 04:21:00;;;;;;;18.85;9.95;;;;;;;;;;5071640;28;20028;-76
2022/10/20 04:23:26;;;;;;;13.50;9.77;;;;;;;;;;5069206;28;20146;-76
2022/10/20 04:25:52;;;;;;;15.82;10.07;;;;;;;;;;5068396;28;20031;-75
2022/10/20 04:28:19;;;;;;;15.77;9.90;;;;;;;;;;5062371;28;20029;-78
2022/10/20 04:30:46;;;;;;;17.40;10.70;;;;;;;;;;5069624;28;20028;-76
2022/10/20 04:33:12;;;;;;;15.13;10.10;;;;;;;;;;5064627;28;20544;-77
2022/10/20 04:35:39;;;;;;;15.85;10.00;;;;;;;;;;5069909;28;20031;-76
2022/10/20 04:38:05;;;;;;;15.68;10.85;;;;;;;;;;5071180;28;20117;-75
2022/10/20 04:40:31;;;;;;;15.63;10.43;;;;;;;;;;5069054;28;20027;-75
2022/10/20 04:43:00;;;;;;;18.70;11.63;;;;;;;;;;5070002;28;20474;-74
2022/10/20 04:45:26;;;;;;;20.40;14.07;;;;;;;;;;5057103;28;20036;-83
2022/10/20 04:47:53;;;;;;;17.08;10.73;;;;;;;;;;5070336;28;20534;-75
2022/10/20 04:50:22;;;;;;;19.23;10.77;;;;;;;;;;5076594;28;20581;-77
2022/10/20 04:52:50;;;;;;;21.40;11.35;;;;;;;;;;5068112;28;20025;-74
2022/10/20 04:55:16;;;;;;;16.55;9.98;;;;;;;;;;5057479;28;20456;-86
2022/10/20 04:57:42;;;;;;;13.68;9.65;;;;;;;;;;5075717;28;20082;-76
2022/10/20 05:00:08;;;;;;;17.73;10.48;;;;;;;;;;5074819;28;20029;-76
2022/10/20 05:02:34;;;;;;;21.27;9.85;;;;;;;;;;5061522;28;20104;-77
2022/10/20 05:05:00;;;;;;;17.65;9.98;;;;;;;;;;5062275;28;20409;-77
2022/10/20 05:07:29;;;;;;;19.48;10.57;;;;;;;;;;5074176;28;20386;-76
2022/10/20 05:09:55;;;;;;;18.33;10.30;;;;;;;;;;5075613;28;20063;-78
2022/10/20 05:12:21;;;;;;;15.75;9.60;;;;;;;;;;5075747;28;20032;-78
2022/10/20 05:14:47;;;;;;;34.67;10.75;;;;;;;;;;5069091;28;20056;-78
2022/10/20 05:17:14;;;;;;;14.98;9.68;;;;;;;;;;5071215;28;20039;-77
2022/10/20 05:19:40;;;;;;;17.63;10.55;;;;;;;;;;5073467;28;20548;-76
2022/10/20 05:22:06;;;;;;;17.58;10.07;;;;;;;;;;5072832;28;20035;-75
2022/10/20 05:24:42;;;;;;;21.00;10.43;;;;;;;;;;5068579;28;20040;-80
2022/10/20 05:27:08;;;;;;;23.13;10.88;;;;;;;;;;5073042;28;20040;-76
2022/10/20 05:29:34;;;;;;;16.50;9.25;;;;;;;;;;5056569;28;20028;-75
2022/10/20 05:32:00;;;;;;;18.35;9.88;;;;;;;;;;5063776;28;20524;-75
2022/10/20 05:34:26;;;;;;;18.63;10.70;;;;;;;;;;5066795;28;20032;-75
2022/10/20 05:36:53;;;;;;;18.60;10.43;;;;;;;;;;5072580;28;20078;-77
2022/10/20 05:39:19;;;;;;;15.32;10.05;;;;;;;;;;5073776;28;20031;-75
2022/10/20 05:41:45;;;;;;;18.60;10.25;;;;;;;;;;5070712;28;20090;-75
2022/10/20 05:44:12;;;;;;;23.17;10.25;;;;;;;;;;5069495;28;20048;-75
2022/10/20 05:46:41;;;;;;;20.38;9.98;;;;;;;;;;5071657;28;20024;-76
2022/10/20 05:49:14;;;;;;;18.40;10.23;;;;;;;;;;5057150;28;20044;-76
2022/10/20 05:51:47;;;;;;;15.03;10.40;;;;;;;;;;5052751;28;20680;-81
2022/10/20 05:54:13;;;;;;;20.58;10.82;;;;;;;;;;5072861;28;20031;-75
2022/10/20 05:56:43;;;;;;;13.25;9.65;;;;;;;;;;5065050;28;20036;-78
2022/10/20 05:59:09;;;;;;;15.52;10.00;;;;;;;;;;5074763;28;20051;-75
2022/10/20 06:01:46;;;;;;;20.20;9.70;;;;;;;;;;5070426;28;20095;-75
2022/10/20 06:04:16;;;;;;;14.00;8.90;;;;;;;;;;5072564;28;20078;-77
2022/10/20 06:06:43;;;;;;;19.55;10.00;;;;;;;;;;5071926;28;20473;-74
2022/10/20 06:09:09;;;;;;;20.85;10.02;;;;;;;;;;5074997;28;20051;-75
2022/10/20 06:11:35;;;;;;;16.70;9.43;;;;;;;;;;5072805;28;20099;-76
2022/10/20 06:14:02;;;;;;;15.05;9.50;;;;;;;;;;5076707;28;20533;-76
2022/10/20 06:16:28;;;;;;;16.08;9.73;;;;;;;;;;5072678;28;20028;-75
2022/10/20 06:18:56;;;;;;;13.07;9.25;;;;;;;;;;5073172;28;20032;-75
2022/10/20 06:21:23;;;;;;;16.35;9.90;;;;;;;;;;5073604;28;20028;-76
2022/10/20 06:23:50;;;;;;;14.55;8.75;;;;;;;;;;5069275;28;20037;-75
2022/10/20 06:26:17;;;;;;;81.25;31.17;;;;;;;;;;5071240;28;20035;-75
2022/10/20 06:28:43;;;;;;;30.98;24.83;;;;;;;;;;5071625;28;20025;-75
2022/10/20 06:31:13;;;;;;;19.42;10.98;;;;;;;;;;5073119;28;20489;-75
2022/10/20 06:33:40;;;;;;;19.67;10.88;;;;;;;;;;5071995;28;20111;-76
2022/10/20 06:36:06;;;;;;;13.13;8.40;;;;;;;;;;5072544;28;20078;-76
2022/10/20 06:38:32;;;;;;;13.63;8.10;;;;;;;;;;5071568;28;20024;-75
2022/10/20 06:41:02;;;;;;;9.50;7.78;;;;;;;;;;5072588;28;20017;-75
2022/10/20 06:43:28;;;;;;;10.52;8.32;;;;;;;;;;5070394;28;20131;-75
2022/10/20 06:45:58;;;;;;;15.85;11.32;;;;;;;;;;5071023;28;20029;-75
2022/10/20 06:48:24;;;;;;;12.15;9.23;;;;;;;;;;5065602;28;20024;-75
2022/10/20 06:50:55;;;;;;;21.23;13.40;;;;;;;;;;5068092;28;20478;-74
2022/10/20 06:53:21;;;;;;;16.63;9.80;;;;;;;;;;5054037;28;20347;-74
2022/10/20 06:56:20;;;;;;;13.75;8.00;;;;;;;;;;5074685;28;20036;-74
2022/10/20 06:58:48;;;;;;;18.30;8.52;;;;;;;;;;4958446;28;20042;-76
2022/10/20 07:01:15;;;;;;;13.30;8.23;;;;;;;;;;4954782;28;20043;-75
2022/10/20 07:03:42;;;;;;;12.15;8.40;;;;;;;;;;4959329;28;20101;-75
2022/10/20 07:06:10;;;;;;;10.75;8.18;;;;;;;;;;4955715;28;20204;-75
2022/10/20 07:08:39;;;;;;;10.27;7.75;;;;;;;;;;4963124;28;20046;-77
2022/10/20 07:11:11;;;;;;;12.75;7.80;;;;;;;;;;4958674;28;20062;-76
2022/10/20 07:13:37;;;;;;;10.13;7.30;;;;;;;;;;4959614;28;20051;-77
2022/10/20 07:16:04;;;;;;;10.85;8.35;;;;;;;;;;4953359;28;20435;-76
2022/10/20 07:18:30;;;;;;;13.02;7.90;;;;;;;;;;4958207;28;20034;-77
2022/10/20 07:21:01;;;;;;;10.18;7.88;;;;;;;;;;4953812;28;20528;-76
2022/10/20 07:23:28;;;;;;;15.35;8.10;;;;;;;;;;4961613;28;20077;-76
2022/10/20 07:26:01;;;;;;;22.95;9.02;;;;;;;;;;4959699;28;20046;-76
2022/10/20 07:28:27;;;;;;;19.83;9.00;;;;;;;;;;4947938;28;20576;-76
2022/10/20 07:30:53;;;;;;;15.55;7.97;;;;;;;;;;4962385;28;20093;-76
2022/10/20 07:33:19;;;;;;;14.73;8.63;;;;;;;;;;4965116;28;20126;-76
2022/10/20 07:35:45;;;;;;;16.17;8.93;;;;;;;;;;5051565;28;20381;-76
2022/10/20 07:38:11;;;;;;;14.85;9.38;;;;;;;;;;5052151;28;20025;-77
2022/10/20 07:40:37;;;;;;;16.63;9.38;;;;;;;;;;5053878;28;20021;-77
2022/10/20 07:43:03;;;;;;;16.65;8.63;;;;;;;;;;5052582;28;20382;-77
2022/10/20 07:45:29;;;;;;;14.23;9.25;;;;;;;;;;5053323;28;20021;-77
2022/10/20 07:47:55;;;;;;;12.65;8.23;;;;;;;;;;5053915;28;20028;-77
2022/10/20 07:50:22;;;;;;;10.30;7.93;;;;;;;;;;5052305;28;20370;-77
2022/10/20 07:52:52;;;;;;;15.43;8.38;;;;;;;;;;5046009;28;20025;-77
2022/10/20 07:55:18;;;;;;;12.60;8.50;;;;;;;;;;5035074;28;20478;-77
2022/10/20 07:57:44;;;;;;;16.23;8.00;;;;;;;;;;5032768;28;20471;-76
2022/10/20 08:00:12;;;;;;;8.85;6.35;;;;;;;;;;5046823;28;20033;-77
2022/10/20 08:02:39;;;;;;;9.05;6.10;;;;;;;;;;5050404;28;20053;-77
2022/10/20 08:05:06;;;;;;;10.07;7.40;;;;;;;;;;5037591;28;20076;-77
2022/10/20 08:07:32;;;;;;;11.68;7.60;;;;;;;;;;5042529;28;20036;-76
2022/10/20 08:09:58;;;;;;;14.77;7.65;;;;;;;;;;5052930;28;20040;-77
2022/10/20 08:12:24;;;;;;;14.38;8.30;;;;;;;;;;5064659;28;20096;-77
2022/10/20 08:14:50;;;;;;;13.63;7.90;;;;;;;;;;5071482;28;20020;-77
2022/10/20 08:17:17;;;;;;;11.63;7.60;;;;;;;;;;5055703;28;20028;-77
2022/10/20 08:19:43;;;;;;;13.07;6.65;;;;;;;;;;5062347;28;20104;-76
2022/10/20 08:22:09;;;;;;;13.93;6.78;;;;;;;;;;5070590;28;20092;-76
2022/10/20 08:24:35;;;;;;;9.80;6.50;;;;;;;;;;5070811;28;20047;-76
2022/10/20 08:27:01;;;;;;;13.63;6.30;;;;;;;;;;5066016;28;20021;-78
2022/10/20 08:29:27;;;;;;;9.73;6.18;;;;;;;;;;5067412;28;20029;-77
2022/10/20 08:31:53;;;;;;;9.82;5.82;;;;;;;;;;5048885;28;20021;-77
2022/10/20 08:34:19;;;;;;;10.70;6.38;;;;;;;;;;5068741;28;20043;-76
2022/10/20 08:36:45;;;;;;;8.05;5.28;;;;;;;;;;5071572;28;20017;-76
2022/10/20 08:39:12;;;;;;;8.52;5.40;;;;;;;;;;5073176;28;20477;-75
2022/10/20 08:41:45;;;;;;;9.85;6.18;;;;;;;;;;5073286;28;20055;-77
2022/10/20 08:44:17;;;;;;;7.93;5.35;;;;;;;;;;5073889;28;20043;-77
2022/10/20 08:46:43;;;;;;;8.13;5.10;;;;;;;;;;5071173;28;20461;-77
2022/10/20 08:49:13;;;;;;;11.45;5.97;;;;;;;;;;5072823;28;20041;-76
2022/10/20 08:51:39;;;;;;;13.27;6.18;;;;;;;;;;5074067;28;20550;-77
2022/10/20 08:54:13;;;;;;;8.93;5.63;;;;;;;;;;5072906;28;20038;-77
2022/10/20 08:56:39;;;;;;;;;;;;;;;;;;5066811;28;20393;-76
2022/10/20 08:59:24;;;;;;;10.18;5.60;;;;;;;;;;5070321;28;19912;-78
2022/10/20 09:01:50;;;;;;;8.98;4.93;;;;;;;;;;5068573;28;20377;-77
2022/10/20 09:04:19;;;;;;;10.57;4.95;;;;;;;;;;5055175;28;20119;-77
2022/10/20 09:06:46;;;;;;;7.28;4.78;;;;;;;;;;5072446;28;20021;-76
2022/10/20 09:09:16;;;;;;;6.72;4.50;;;;;;;;;;5068162;28;20041;-77
2022/10/20 09:11:43;;;;;;;5.85;4.32;;;;;;;;;;5067935;28;20052;-76
2022/10/20 09:14:10;;;;;;;9.18;4.38;;;;;;;;;;5073006;28;20492;-75
2022/10/20 09:16:40;;;;;;;13.25;4.97;;;;;;;;;;5046407;28;20025;-75
2022/10/20 09:19:07;;;;;;;12.43;4.75;;;;;;;;;;5049575;28;20033;-77
2022/10/20 09:21:34;;;;;;;9.73;4.60;;;;;;;;;;5052463;28;20066;-76
2022/10/20 09:24:02;;;;;;;7.85;4.80;;;;;;;;;;5072634;28;20162;-76
2022/10/20 09:26:31;;;;;;;7.50;5.18;;;;;;;;;;5070387;28;20020;-76
2022/10/20 09:29:09;;;;;;;7.70;4.50;;;;;;;;;;5056744;28;20025;-76
2022/10/20 09:31:36;;;;;;;13.02;8.60;;;;;;;;;;5069589;28;20742;-76
2022/10/20 09:34:18;;;;;;;26.83;11.55;;;;;;;;;;5072451;28;20035;-77
2022/10/20 09:36:45;;;;;;;6.10;4.25;;;;;;;;;;5067036;28;20101;-76
2022/10/20 09:39:28;;;;;;;13.20;5.15;;;;;;;;;;5054055;28;20045;-78
2022/10/20 09:42:02;;;;;;;12.25;5.13;;;;;;;;;;5074563;28;20036;-75
2022/10/20 09:44:30;;;;;;;8.55;4.43;;;;;;;;;;5073114;28;20032;-75
2022/10/20 09:46:56;;;;;;;6.53;4.30;;;;;;;;;;5069940;28;20024;-75
2022/10/20 09:49:29;;;;;;;9.20;4.07;;;;;;;;;;5073110;28;20024;-75
2022/10/20 09:51:55;;;;;;;6.80;4.22;;;;;;;;;;5066922;28;20144;-76
2022/10/20 09:54:23;;;;;;;8.90;4.55;;;;;;;;;;5073353;28;20474;-76
2022/10/20 09:56:51;;;;;;;6.18;4.40;;;;;;;;;;5073844;28;20426;-76
2022/10/20 09:59:23;;;;;;;5.28;4.13;;;;;;;;;;5073558;28;20024;-76
2022/10/20 10:02:12;;;;;;;6.55;4.20;;;;;;;;;;5074858;28;20104;-76
2022/10/20 10:04:41;;;;;;;6.63;4.07;;;;;;;;;;5056705;28;20497;-76
2022/10/20 10:07:31;;;;;;;5.82;3.97;;;;;;;;;;5074676;28;20112;-77
2022/10/20 10:09:57;;;;;;;7.95;3.90;;;;;;;;;;5073126;28;20113;-76
2022/10/20 10:12:23;;;;;;;7.30;4.00;;;;;;;;;;5074039;28;20029;-75
2022/10/20 10:14:52;;;;;;;6.97;3.88;;;;;;;;;;5058940;28;20047;-76
2022/10/20 10:17:35;;;;;;;6.97;3.90;;;;;;;;;;5057280;28;20385;-76
2022/10/20 10:20:04;;;;;;;8.52;4.03;;;;;;;;;;5056097;28;20390;-76
2022/10/20 10:22:30;;;;;;;6.63;3.58;;;;;;;;;;5074023;28;20591;-75
2022/10/20 10:25:00;;;;;;;9.05;3.80;;;;;;;;;;5075494;28;20047;-75
2022/10/20 10:27:27;;;;;;;6.60;3.88;;;;;;;;;;5073370;28;20541;-74
2022/10/20 10:29:54;;;;;;;5.20;3.85;;;;;;;;;;5071779;28;20029;-73
2022/10/20 10:32:28;;;;;;;6.55;3.80;;;;;;;;;;5071261;28;20044;-75
2022/10/20 10:35:19;;;;;;;5.10;3.40;;;;;;;;;;5072361;28;20043;-75
2022/10/20 10:37:46;;;;;;;9.20;4.15;;;;;;;;;;5070513;28;20020;-74
2022/10/20 10:40:16;;;;;;;7.35;4.32;;;;;;;;;;5073282;28;20028;-75
2022/10/20 10:42:51;;;;;;;7.82;3.45;;;;;;;;;;5066308;28;20029;-75
2022/10/20 10:45:27;;;;;;;8.23;3.83;;;;;;;;;;5069744;28;20032;-74
2022/10/20 10:48:03;;;;;;;6.03;3.78;;;;;;;;;;5060889;28;20048;-75
2022/10/20 10:50:35;;;;;;;6.57;3.72;;;;;;;;;;5071038;28;20860;-75
2022/10/20 10:53:20;;;;;;;5.07;3.55;;;;;;;;;;5072738;28;20445;-75
2022/10/20 10:55:54;;;;;;;6.38;3.60;;;;;;;;;;5069910;28;20470;-75
2022/10/20 10:58:33;;;;;;;4.93;3.13;;;;;;;;;;5070856;28;20496;-76
2022/10/20 11:01:05;;;;;;;15.38;3.55;;;;;;;;;;5071991;28;20025;-74
2022/10/20 11:03:49;;;;;;;8.23;3.38;;;;;;;;;;5072035;28;20120;-75
2022/10/20 11:06:30;;;;;;;5.32;3.53;;;;;;;;;;5068689;28;20104;-75
2022/10/20 11:08:56;;;;;;;6.45;3.40;;;;;;;;;;5070258;28;20048;-75
2022/10/20 11:11:29;;;;;;;8.52;3.40;;;;;;;;;;5066851;28;20490;-75
2022/10/20 11:14:06;;;;;;;5.88;3.50;;;;;;;;;;5072116;28;20035;-75
2022/10/20 11:16:47;;;;;;;8.55;3.63;;;;;;;;;;5072230;28;20069;-74
2022/10/20 11:19:22;;;;;;;4.75;3.25;;;;;;;;;;5070901;28;20112;-75
2022/10/20 11:22:07;;;;;;;8.25;3.38;;;;;;;;;;5067037;28;20028;-75
2022/10/20 11:24:39;;;;;;;6.20;3.50;;;;;;;;;;5078836;28;20063;-75
2022/10/20 11:27:13;;;;;;;5.65;3.40;;;;;;;;;;5066419;28;20107;-75
2022/10/20 11:29:50;;;;;;;5.95;3.17;;;;;;;;;;5072727;28;20394;-75
2022/10/20 11:32:16;;;;;;;6.75;3.50;;;;;;;;;;5070277;28;20025;-76
2022/10/20 11:34:42;;;;;;;6.15;3.83;;;;;;;;;;5070130;28;20032;-75
2022/10/20 11:37:11;;;;;;;6.18;3.13;;;;;;;;;;5072012;28;20489;-75
2022/10/20 11:39:44;;;;;;;8.77;3.75;;;;;;;;;;5072580;28;20024;-74
2022/10/20 11:42:23;;;;;;;5.93;2.97;;;;;;;;;;5072304;28;20135;-75
2022/10/20 11:44:49;;;;;;;6.28;3.22;;;;;;;;;;5071948;28;20485;-75
2022/10/20 11:47:17;;;;;;;6.15;3.20;;;;;;;;;;5054268;28;20060;-75
2022/10/20 11:49:43;;;;;;;12.50;3.15;;;;;;;;;;5071531;28;20031;-75
2022/10/20 11:52:48;;;;;;;13.25;3.75;;;;;;;;;;5071815;28;20436;-75
2022/10/20 11:55:14;;;;;;;;;;;;;;;;;;4989570;28;20100;-75
2022/10/20 11:58:00;;;;;;;6.32;3.00;;;;;;;;;;4992005;28;19941;-75
2022/10/20 12:00:35;;;;;;;8.45;3.13;;;;;;;;;;4933327;29;20044;-75
2022/10/20 12:03:31;;;;;;;4.05;2.95;;;;;;;;;;4932382;29;20047;-75
2022/10/20 12:06:00;;;;;;;5.35;3.10;;;;;;;;;;4863652;29;20460;-75
2022/10/20 12:08:44;;;;;;;6.28;3.00;;;;;;;;;;4857508;29;20036;-74
2022/10/20 12:11:10;;;;;;;6.75;3.15;;;;;;;;;;4859532;29;20068;-75
2022/10/20 12:13:48;;;;;;;5.82;2.92;;;;;;;;;;4859134;29;20072;-75
2022/10/20 12:16:33;;;;;;;5.35;2.90;;;;;;;;;;4860438;29;20046;-75
2022/10/20 12:19:06;;;;;;;5.60;3.10;;;;;;;;;;4858957;29;20053;-75
2022/10/20 12:21:50;;;;;;;5.22;3.10;;;;;;;;;;4859117;29;20086;-75
2022/10/20 12:24:30;;;;;;;9.95;3.25;;;;;;;;;;4858514;29;20133;-75
2022/10/20 12:27:05;;;;;;;4.32;3.10;;;;;;;;;;4926801;29;20039;-75
2022/10/20 12:29:31;;;;;;;5.20;2.70;;;;;;;;;;4930180;29;20185;-75
2022/10/20 12:32:19;;;;;;;5.82;3.03;;;;;;;;;;4922910;29;20123;-75
2022/10/20 12:34:46;;;;;;;7.40;3.00;;;;;;;;;;4901788;29;20075;-75
2022/10/20 12:37:20;;;;;;;4.03;2.65;;;;;;;;;;4910260;29;20156;-75
2022/10/20 12:39:46;;;;;;;10.52;3.10;;;;;;;;;;4931928;28;20397;-75
2022/10/20 12:42:23;;;;;;;4.88;3.20;;;;;;;;;;4957063;28;20077;-75
2022/10/20 12:44:49;;;;;;;10.95;2.90;;;;;;;;;;4990999;28;20066;-75
2022/10/20 12:47:27;;;;;;;4.95;2.70;;;;;;;;;;4989694;28;20076;-75
2022/10/20 12:49:54;;;;;;;4.38;2.65;;;;;;;;;;4996429;28;20037;-74
2022/10/20 12:52:22;;;;;;;9.07;2.65;;;;;;;;;;4996651;28;20042;-74
2022/10/20 12:54:54;;;;;;;16.60;3.65;;;;;;;;;;4993400;28;20030;-75
2022/10/20 12:57:28;;;;;;;6.13;2.85;;;;;;;;;;4992945;28;20030;-76
2022/10/20 12:59:54;;;;;;;6.75;3.00;;;;;;;;;;4992295;28;20049;-77
2022/10/20 13:02:23;;;;;;;4.47;2.72;;;;;;;;;;4994396;28;20041;-74
2022/10/20 13:05:10;;;;;;;6.90;3.22;;;;;;;;;;4995318;28;20550;-76
2022/10/20 13:08:09;;;;;;;4.78;2.55;;;;;;;;;;5032552;22;20054;-76
2022/10/20 13:10:38;;;;;;;7.03;2.80;;;;;;;;;;5099270;28;20072;-75
2022/10/20 13:13:04;;;;;;;7.43;2.85;;;;;;;;;;5122015;28;20047;-78
2022/10/20 13:15:47;;;;;;;4.85;2.80;;;;;;;;;;5105955;28;20023;-76
2022/10/20 13:18:23;;;;;;;5.93;2.70;;;;;;;;;;5118433;28;20029;-76
2022/10/20 13:21:01;;;;;;;4.30;2.90;;;;;;;;;;5110860;28;20016;-74
2022/10/20 13:23:39;;;;;;;5.05;2.70;;;;;;;;;;5090627;28;20084;-76
2022/10/20 13:26:15;;;;;;;7.57;2.90;;;;;;;;;;5095404;28;20504;-77
2022/10/20 13:28:46;;;;;;;10.25;2.60;;;;;;;;;;5109493;28;20027;-75
2022/10/20 13:31:16;;;;;;;8.45;3.05;;;;;;;;;;5111508;28;20027;-76
2022/10/20 13:33:50;;;;;;;4.50;2.50;;;;;;;;;;5111186;28;20030;-75
2022/10/20 13:36:41;;;;;;;7.90;3.00;;;;;;;;;;5111164;28;20157;-75
2022/10/20 13:39:21;;;;;;;4.85;2.75;;;;;;;;;;5112370;28;20032;-75
2022/10/20 13:41:53;;;;;;;5.97;2.92;;;;;;;;;;5091889;28;20030;-76
2022/10/20 13:44:28;;;;;;;10.00;2.97;;;;;;;;;;5103940;28;20035;-76
2022/10/20 13:47:10;;;;;;;7.03;3.17;;;;;;;;;;5095138;28;20032;-75
2022/10/20 13:49:42;;;;;;;9.65;2.83;;;;;;;;;;5097179;28;20032;-76
2022/10/20 13:52:14;;;;;;;4.40;2.80;;;;;;;;;;5081169;28;21382;-76
2022/10/20 13:54:43;;;;;;;9.80;2.92;;;;;;;;;;5103551;27;20435;-75
2022/10/20 13:57:18;;;;;;;4.97;2.53;;;;;;;;;;5101855;28;20038;-76
2022/10/20 13:59:54;;;;;;;6.97;3.00;;;;;;;;;;5107376;28;20107;-75
2022/10/20 14:02:25;;;;;;;5.20;2.95;;;;;;;;;;5111411;28;20501;-75
2022/10/20 14:05:11;;;;;;;4.70;2.83;;;;;;;;;;5114468;27;20084;-75
2022/10/20 14:07:49;;;;;;;14.35;3.15;;;;;;;;;;5104533;27;20044;-75
2022/10/20 14:10:23;;;;;;;6.32;3.00;;;;;;;;;;5116535;27;20026;-75
2022/10/20 14:12:50;;;;;;;10.30;3.00;;;;;;;;;;5086733;28;20430;-75
2022/10/20 14:15:21;;;;;;;8.60;3.10;;;;;;;;;;5114617;28;20023;-75
2022/10/20 14:17:58;;;;;;;4.88;2.60;;;;;;;;;;5109847;28;20030;-76
2022/10/20 14:20:28;;;;;;;7.80;2.95;;;;;;;;;;5111824;28;20473;-76
2022/10/20 14:22:54;;;;;;;12.05;4.78;;;;;;;;;;5112991;28;20027;-75
2022/10/20 14:25:36;;;;;;;18.15;4.80;;;;;;;;;;5114296;28;20380;-74
2022/10/20 14:28:02;;;;;;;6.65;3.67;;;;;;;;;;5110035;28;20107;-75
2022/10/20 14:30:31;;;;;;;5.38;3.10;;;;;;;;;;5109986;28;20031;-74
2022/10/20 14:32:57;;;;;;;4.93;3.28;;;;;;;;;;5104340;22;20048;-75
2022/10/20 14:35:39;;;;;;;12.50;3.17;;;;;;;;;;5074876;28;20024;-77
2022/10/20 14:38:13;;;;;;;8.10;3.28;;;;;;;;;;5056750;28;20028;-74
2022/10/20 14:40:39;;;;;;;6.38;2.85;;;;;;;;;;5085034;22;20055;-77
2022/10/20 14:43:17;;;;;;;7.80;2.80;;;;;;;;;;5063050;28;20063;-76
2022/10/20 14:46:03;;;;;;;8.25;2.97;;;;;;;;;;5073709;28;20024;-75
2022/10/20 14:48:44;;;;;;;5.50;2.90;;;;;;;;;;5074068;28;20028;-76